createdAt,value
2022-09-07T00:00:51.415Z,8.30
2022-09-07T00:03:19.020Z,6.65
2022-09-07T00:05:48.178Z,8.02
2022-09-07T00:08:15.982Z,6.27
2022-09-07T00:10:51.405Z,6.60
2022-09-07T00:13:18.474Z,10.38
2022-09-07T00:15:45.672Z,8.63
2022-09-07T00:18:12.767Z,11.27
2022-09-07T00:20:39.822Z,9.47
2022-09-07T00:23:06.898Z,8.50
2022-09-07T00:25:39.057Z,9.45
2022-09-07T00:28:07.031Z,12.50
2022-09-07T00:30:34.562Z,10.43
2022-09-07T00:33:01.610Z,16.07
2022-09-07T00:35:28.646Z,12.60
2022-09-07T00:37:55.694Z,15.27
2022-09-07T00:40:22.774Z,12.15
2022-09-07T00:42:49.851Z,14.35
2022-09-07T00:45:18.951Z,17.00
2022-09-07T00:47:49.078Z,11.95
2022-09-07T00:50:30.939Z,14.73
2022-09-07T00:53:01.150Z,12.63
2022-09-07T00:55:28.243Z,13.80
2022-09-07T00:57:56.545Z,18.17
2022-09-07T01:00:23.949Z,14.82
2022-09-07T01:02:52.288Z,15.23
2022-09-07T01:05:26.071Z,11.82
2022-09-07T01:07:56.170Z,9.90
2022-09-07T01:10:25.363Z,11.73
2022-09-07T01:12:52.465Z,11.50
2022-09-07T01:15:21.078Z,8.63
2022-09-07T01:18:23.524Z,8.52
2022-09-07T01:21:09.322Z,10.18
2022-09-07T01:23:55.371Z,7.77
2022-09-07T01:26:27.986Z,8.95
2022-09-07T01:29:03.015Z,8.05
2022-09-07T01:31:30.108Z,8.73
2022-09-07T01:34:10.845Z,7.13
2022-09-07T01:36:43.717Z,9.50
2022-09-07T01:39:10.773Z,8.18
2022-09-07T01:41:48.087Z,5.75
2022-09-07T01:44:23.319Z,6.82
2022-09-07T01:46:58.783Z,4.97
2022-09-07T01:49:30.349Z,6.10
2022-09-07T01:51:59.765Z,5.82
2022-09-07T01:54:30.137Z,4.60
2022-09-07T01:57:00.943Z,4.20
2022-09-07T01:59:30.882Z,6.82
2022-09-07T02:02:12.414Z,4.67
2022-09-07T02:04:42.616Z,4.70
2022-09-07T02:07:13.101Z,3.90
2022-09-07T02:09:49.830Z,5.20
2022-09-07T02:12:26.555Z,4.68
2022-09-07T02:14:56.488Z,5.30
2022-09-07T02:17:27.509Z,5.88
2022-09-07T02:19:59.518Z,5.68
2022-09-07T02:22:29.251Z,5.47
2022-09-07T02:24:58.656Z,5.82
2022-09-07T02:27:28.017Z,5.13
2022-09-07T02:29:55.205Z,4.13
2022-09-07T02:32:22.331Z,5.65
2022-09-07T02:34:50.231Z,5.28
2022-09-07T02:37:17.814Z,4.63
2022-09-07T02:39:44.935Z,6.43
2022-09-07T02:42:12.069Z,7.20
2022-09-07T02:44:40.599Z,6.32
2022-09-07T02:47:14.135Z,8.38
2022-09-07T02:49:59.337Z,6.85
2022-09-07T02:52:26.384Z,7.27
2022-09-07T02:54:56.441Z,6.45
2022-09-07T02:57:35.263Z,6.65
2022-09-07T03:00:06.900Z,7.15
2022-09-07T03:02:52.264Z,8.23
2022-09-07T03:05:25.259Z,6.13
2022-09-07T03:08:01.037Z,6.07
2022-09-07T03:10:28.918Z,7.70
2022-09-07T03:12:55.998Z,8.57
2022-09-07T03:15:24.805Z,9.35
2022-09-07T03:17:52.291Z,6.13
2022-09-07T03:20:20.114Z,7.97
2022-09-07T03:22:47.934Z,8.13
2022-09-07T03:25:15.794Z,8.50
2022-09-07T03:27:43.374Z,9.05
2022-09-07T03:30:11.517Z,7.90
2022-09-07T03:32:39.352Z,8.10
2022-09-07T03:35:07.617Z,8.82
2022-09-07T03:37:37.878Z,11.88
2022-09-07T03:40:06.673Z,11.85
2022-09-07T03:42:33.830Z,6.87
2022-09-07T03:45:00.965Z,7.75
2022-09-07T03:47:28.289Z,9.65
2022-09-07T03:49:55.346Z,10.43
2022-09-07T03:52:22.464Z,7.65
2022-09-07T03:54:49.565Z,11.37
2022-09-07T03:57:16.746Z,9.60
2022-09-07T03:59:43.834Z,8.30
2022-09-07T04:02:10.919Z,8.05
2022-09-07T04:04:38.101Z,9.50
2022-09-07T04:07:06.649Z,8.47
2022-09-07T04:09:33.826Z,7.60
2022-09-07T04:12:00.915Z,9.10
2022-09-07T04:14:27.953Z,9.65
2022-09-07T04:16:55.215Z,10.05
2022-09-07T04:19:22.367Z,8.97
2022-09-07T04:21:49.424Z,9.45
2022-09-07T04:24:17.228Z,8.00
2022-09-07T04:26:44.805Z,11.77
2022-09-07T04:29:12.427Z,10.50
2022-09-07T04:31:40.002Z,8.93
2022-09-07T04:34:07.677Z,11.05
2022-09-07T04:36:35.271Z,8.68
2022-09-07T04:39:03.595Z,11.18
2022-09-07T04:41:31.751Z,9.82
2022-09-07T04:44:00.288Z,7.53
2022-09-07T04:46:33.691Z,10.40
2022-09-07T04:49:01.929Z,10.40
2022-09-07T04:51:30.087Z,9.13
2022-09-07T04:53:59.601Z,10.82
2022-09-07T04:56:26.758Z,9.77
2022-09-07T04:58:54.040Z,9.90
2022-09-07T05:01:22.314Z,9.90
2022-09-07T05:03:49.918Z,11.75
2022-09-07T05:06:18.217Z,10.48
2022-09-07T05:08:46.566Z,10.97
2022-09-07T05:11:14.637Z,10.02
2022-09-07T05:13:41.825Z,12.65
2022-09-07T05:16:10.318Z,10.27
2022-09-07T05:18:37.664Z,9.45
2022-09-07T05:21:12.046Z,10.40
2022-09-07T05:23:39.157Z,11.40
2022-09-07T05:26:06.503Z,12.35
2022-09-07T05:28:34.404Z,11.35
2022-09-07T05:31:21.026Z,12.77
2022-09-07T05:36:39.451Z,8.98
2022-09-07T05:39:06.984Z,14.82
2022-09-07T05:41:34.230Z,12.15
2022-09-07T05:46:48.399Z,10.57
2022-09-07T05:49:15.447Z,14.02
2022-09-07T05:51:42.522Z,11.70
2022-09-07T05:54:12.050Z,9.50
2022-09-07T05:56:39.110Z,12.60
2022-09-07T05:59:06.230Z,10.87
2022-09-07T06:01:35.239Z,10.95
2022-09-07T06:04:02.447Z,13.57
2022-09-07T06:06:30.078Z,12.40
2022-09-07T06:08:57.754Z,12.07
2022-09-07T06:11:25.458Z,11.60
2022-09-07T06:13:52.542Z,12.52
2022-09-07T06:16:20.163Z,12.63
2022-09-07T06:18:48.271Z,13.15
2022-09-07T06:21:15.308Z,13.02
2022-09-07T06:23:43.462Z,13.10
2022-09-07T06:26:11.350Z,13.68
2022-09-07T06:28:39.565Z,16.38
2022-09-07T06:31:13.042Z,16.33
2022-09-07T06:33:40.879Z,16.50
2022-09-07T06:36:10.314Z,15.77
2022-09-07T06:38:38.209Z,16.88
2022-09-07T06:43:54.716Z,16.55
2022-09-07T06:49:09.163Z,16.40
2022-09-07T06:51:37.606Z,16.30
2022-09-07T06:56:52.574Z,15.35
2022-09-07T06:59:19.734Z,14.27
2022-09-07T07:01:46.798Z,13.00
2022-09-07T07:04:14.551Z,17.17
2022-09-07T07:06:41.651Z,17.77
2022-09-07T07:09:09.590Z,14.88
2022-09-07T07:11:37.523Z,17.23
2022-09-07T07:14:04.946Z,18.10
2022-09-07T07:16:32.085Z,16.00
2022-09-07T07:18:59.205Z,13.48
2022-09-07T07:21:28.956Z,16.83
2022-09-07T07:24:06.223Z,18.52
2022-09-07T07:26:35.189Z,14.80
2022-09-07T07:29:03.501Z,16.30
2022-09-07T07:31:33.136Z,14.13
2022-09-07T07:34:00.232Z,16.17
2022-09-07T07:36:28.041Z,14.82
2022-09-07T07:38:59.495Z,14.43
2022-09-07T07:44:18.244Z,18.80
2022-09-07T07:46:47.862Z,17.13
2022-09-07T07:49:14.958Z,21.17
2022-09-07T07:54:29.185Z,20.05
2022-09-07T07:56:56.250Z,17.40
2022-09-07T07:59:23.489Z,17.98
2022-09-07T08:01:50.918Z,16.73
2022-09-07T08:04:18.058Z,20.07
2022-09-07T08:06:45.062Z,22.05
2022-09-07T08:09:12.167Z,19.30
2022-09-07T08:11:42.089Z,20.75
2022-09-07T08:14:09.469Z,19.13
2022-09-07T08:16:37.556Z,19.57
2022-09-07T08:19:05.666Z,22.52
2022-09-07T08:21:32.691Z,21.75
2022-09-07T08:24:00.022Z,21.08
2022-09-07T08:26:27.378Z,22.45
2022-09-07T08:28:54.951Z,19.80
2022-09-07T08:31:22.345Z,21.73
2022-09-07T08:33:49.426Z,19.38
2022-09-07T08:36:17.971Z,21.30
2022-09-07T08:38:45.330Z,19.60
2022-09-07T08:41:30.839Z,19.63
2022-09-07T08:44:02.815Z,22.05
2022-09-07T08:46:37.073Z,20.50
2022-09-07T08:49:05.240Z,21.48
2022-09-07T08:51:42.581Z,20.02
2022-09-07T08:54:13.207Z,22.57
2022-09-07T08:57:20.678Z,21.08
2022-09-07T08:59:41.489Z,20.90
2022-09-07T09:02:32.553Z,20.42
2022-09-07T09:05:17.756Z,20.00
2022-09-07T09:08:00.694Z,19.83
2022-09-07T09:10:43.147Z,21.08
2022-09-07T09:13:10.936Z,19.02
2022-09-07T09:15:40.708Z,17.52
2022-09-07T09:18:23.837Z,18.90
2022-09-07T09:20:52.814Z,18.60
2022-09-07T09:23:20.624Z,18.90
2022-09-07T09:25:52.979Z,18.42
2022-09-07T09:28:20.045Z,18.38
2022-09-07T09:30:48.131Z,18.02
2022-09-07T09:33:16.892Z,16.53
2022-09-07T09:35:45.130Z,17.67
2022-09-07T09:38:34.649Z,17.63
2022-09-07T09:41:11.990Z,16.38
2022-09-07T09:43:47.882Z,15.43
2022-09-07T09:46:24.018Z,15.60
2022-09-07T09:48:56.798Z,14.15
2022-09-07T09:54:41.988Z,14.07
2022-09-07T09:57:38.641Z,13.52
2022-09-07T10:00:11.031Z,13.13
2022-09-07T10:05:28.345Z,14.45
2022-09-07T10:07:56.214Z,13.05
2022-09-07T10:10:23.323Z,12.95
2022-09-07T10:12:53.976Z,13.50
2022-09-07T10:15:29.827Z,12.43
2022-09-07T10:17:57.221Z,13.30
2022-09-07T10:20:32.070Z,11.45
2022-09-07T10:22:59.938Z,10.20
2022-09-07T10:25:37.295Z,11.17
2022-09-07T10:28:04.398Z,12.00
2022-09-07T10:30:40.454Z,10.55
2022-09-07T10:33:17.326Z,9.27
2022-09-07T10:35:54.384Z,10.02
2022-09-07T10:38:25.880Z,10.93
2022-09-07T10:41:04.019Z,9.70
2022-09-07T10:43:36.939Z,9.80
2022-09-07T10:46:10.140Z,9.85
2022-09-07T10:48:40.331Z,11.77
2022-09-07T10:51:14.201Z,10.90
2022-09-07T10:57:03.998Z,11.85
2022-09-07T11:02:24.230Z,13.25
2022-09-07T11:05:23.823Z,9.23
2022-09-07T11:07:55.288Z,8.27
2022-09-07T11:10:22.522Z,9.32
2022-09-07T11:12:50.577Z,8.85
2022-09-07T11:15:21.309Z,8.10
2022-09-07T11:17:53.038Z,6.67
2022-09-07T11:20:29.298Z,7.80
2022-09-07T11:23:11.314Z,7.45
2022-09-07T11:25:46.688Z,8.50
2022-09-07T11:28:16.924Z,7.80
2022-09-07T11:30:50.021Z,9.07
2022-09-07T11:33:17.178Z,5.65
2022-09-07T11:35:47.959Z,9.18
2022-09-07T11:38:27.703Z,9.30
2022-09-07T11:41:00.500Z,8.32
2022-09-07T11:43:32.086Z,6.10
2022-09-07T11:46:04.393Z,7.70
2022-09-07T11:48:54.837Z,7.25
2022-09-07T11:51:30.798Z,8.05
2022-09-07T11:54:02.933Z,6.63
2022-09-07T11:56:36.421Z,9.17
2022-09-07T11:59:20.718Z,9.77
2022-09-07T12:01:47.969Z,6.45
2022-09-07T12:04:33.737Z,8.70
2022-09-07T12:07:10.266Z,7.68
2022-09-07T12:09:48.877Z,6.33
2022-09-07T12:12:45.436Z,7.40
2022-09-07T12:15:31.027Z,7.13
2022-09-07T12:18:06.088Z,7.40
2022-09-07T12:20:46.333Z,8.40
2022-09-07T12:23:16.400Z,7.93
2022-09-07T12:25:44.435Z,7.53
2022-09-07T12:28:21.917Z,7.25
2022-09-07T12:30:56.659Z,6.72
2022-09-07T12:33:28.310Z,5.80
2022-09-07T12:35:57.926Z,9.03
2022-09-07T12:38:31.003Z,8.73
2022-09-07T12:41:02.265Z,7.75
2022-09-07T12:43:52.110Z,7.82
2022-09-07T12:46:35.035Z,6.60
2022-09-07T12:49:06.902Z,6.57
2022-09-07T12:54:36.270Z,9.80
2022-09-07T12:57:29.850Z,9.95
2022-09-07T13:00:01.905Z,7.53
2022-09-07T13:02:36.954Z,6.97
2022-09-07T13:05:06.868Z,6.22
2022-09-07T13:07:39.783Z,6.53
2022-09-07T13:10:20.471Z,6.00
2022-09-07T13:12:57.388Z,6.68
2022-09-07T13:15:40.997Z,5.70
2022-09-07T13:18:32.173Z,4.85
2022-09-07T13:21:08.164Z,5.05
2022-09-07T13:23:35.670Z,6.13
2022-09-07T13:26:03.291Z,6.25
2022-09-07T13:28:33.948Z,5.10
2022-09-07T13:31:07.193Z,5.15
2022-09-07T13:33:42.479Z,6.70
2022-09-07T13:36:21.882Z,5.93
2022-09-07T13:38:49.904Z,8.75
2022-09-07T13:41:18.446Z,5.43
2022-09-07T13:43:49.045Z,3.88
2022-09-07T13:46:25.311Z,4.65
2022-09-07T13:48:55.349Z,4.40
2022-09-07T13:51:29.070Z,4.18
2022-09-07T13:53:56.095Z,5.30
2022-09-07T13:56:38.670Z,4.85
2022-09-07T13:59:17.462Z,13.82
2022-09-07T14:01:47.161Z,5.70
2022-09-07T14:04:27.724Z,5.70
2022-09-07T14:07:07.980Z,7.83
2022-09-07T14:09:35.197Z,6.10
2022-09-07T14:12:02.336Z,6.35
2022-09-07T14:14:30.934Z,5.43
2022-09-07T14:17:03.116Z,4.70
2022-09-07T14:19:41.769Z,5.83
2022-09-07T14:22:22.413Z,5.38
2022-09-07T14:24:50.993Z,4.47
2022-09-07T14:27:25.301Z,4.68
2022-09-07T14:29:52.725Z,6.53
2022-09-07T14:32:22.783Z,6.23
2022-09-07T14:34:50.217Z,5.63
2022-09-07T14:37:18.341Z,5.45
2022-09-07T14:39:46.745Z,4.50
2022-09-07T14:42:15.383Z,5.13
2022-09-07T14:44:43.029Z,8.60
2022-09-07T14:47:19.853Z,6.53
2022-09-07T14:49:51.938Z,6.43
2022-09-07T14:52:43.384Z,5.75
2022-09-07T14:55:36.112Z,4.28
2022-09-07T14:58:15.446Z,5.57
2022-09-07T15:00:43.620Z,6.50
2022-09-07T15:03:31.047Z,6.43
2022-09-07T15:06:01.256Z,5.57
2022-09-07T15:08:44.666Z,5.15
2022-09-07T15:11:37.434Z,4.83
2022-09-07T15:14:12.262Z,5.38
2022-09-07T15:16:41.160Z,4.88
2022-09-07T15:19:18.429Z,4.90
2022-09-07T15:21:45.908Z,5.53
2022-09-07T15:24:13.029Z,4.17
2022-09-07T15:27:03.006Z,7.05
2022-09-07T15:29:31.098Z,4.78
2022-09-07T15:32:03.786Z,5.40
2022-09-07T15:34:32.293Z,4.97
2022-09-07T15:37:00.845Z,4.93
2022-09-07T15:39:29.646Z,6.45
2022-09-07T15:41:57.776Z,5.50
2022-09-07T15:44:27.917Z,5.07
2022-09-07T15:49:49.149Z,3.60
2022-09-07T15:52:17.313Z,7.28
2022-09-07T15:54:44.433Z,4.72
2022-09-07T15:59:58.583Z,7.00
2022-09-07T16:05:12.801Z,5.07
2022-09-07T16:10:31.054Z,6.40
2022-09-07T16:13:01.255Z,4.93
2022-09-07T16:15:29.218Z,6.63
2022-09-07T16:17:56.337Z,5.63
2022-09-07T16:20:23.378Z,6.00
2022-09-07T16:25:39.554Z,5.35
2022-09-07T16:28:07.217Z,5.63
2022-09-07T16:30:34.283Z,4.10
2022-09-07T16:33:01.427Z,6.13
2022-09-07T16:35:28.526Z,6.65
2022-09-07T16:40:43.785Z,5.33
2022-09-07T16:43:10.789Z,5.47
2022-09-07T16:48:24.847Z,6.57
2022-09-07T16:51:00.376Z,8.80
2022-09-07T16:53:28.608Z,7.97
2022-09-07T16:56:00.911Z,4.43
2022-09-07T16:58:37.546Z,4.75
2022-09-07T17:01:05.813Z,4.88
2022-09-07T17:03:32.954Z,3.92
2022-09-07T17:06:00.956Z,7.20
2022-09-07T17:08:28.583Z,4.20
2022-09-07T17:11:02.520Z,5.43
2022-09-07T17:13:31.071Z,5.82
2022-09-07T17:16:04.839Z,8.77
2022-09-07T17:21:19.985Z,7.15
2022-09-07T17:23:54.236Z,5.15
2022-09-07T17:26:26.049Z,6.45
2022-09-07T17:28:54.074Z,5.32
2022-09-07T17:34:10.902Z,6.22
2022-09-07T17:36:37.902Z,7.25
2022-09-07T17:39:20.474Z,6.13
2022-09-07T17:41:48.461Z,5.63
2022-09-07T17:44:15.537Z,5.90
2022-09-07T17:46:42.714Z,5.47
2022-09-07T17:49:12.145Z,5.18
2022-09-07T17:51:39.391Z,6.07
2022-09-07T17:54:11.422Z,6.35
2022-09-07T17:56:39.324Z,7.50
2022-09-07T18:01:53.874Z,6.50
2022-09-07T18:04:21.254Z,6.68
2022-09-07T18:06:48.364Z,6.43
2022-09-07T18:09:15.682Z,6.40
2022-09-07T18:11:45.735Z,5.55
2022-09-07T18:14:14.291Z,6.55
2022-09-07T18:16:41.477Z,3.80
2022-09-07T18:19:08.737Z,5.45
2022-09-07T18:21:36.623Z,8.53
2022-09-07T18:24:08.322Z,4.55
2022-09-07T18:26:38.913Z,6.60
2022-09-07T18:29:13.183Z,3.55
2022-09-07T18:31:46.321Z,5.20
2022-09-07T18:34:13.389Z,5.60
2022-09-07T18:36:43.693Z,6.60
2022-09-07T18:39:10.990Z,4.95
2022-09-07T18:41:40.847Z,5.45
2022-09-07T18:45:26.999Z,5.35
2022-09-07T18:46:55.277Z,6.07
2022-09-07T18:49:22.299Z,6.40
2022-09-07T18:54:36.371Z,8.40
2022-09-07T18:57:03.374Z,6.18
2022-09-07T18:59:30.393Z,4.27
2022-09-07T19:02:03.059Z,5.00
2022-09-07T19:07:20.219Z,7.18
2022-09-07T19:09:48.001Z,6.90
2022-09-07T19:12:15.028Z,6.57
2022-09-07T19:14:42.245Z,6.05
2022-09-07T19:17:10.822Z,6.38
2022-09-07T19:19:38.143Z,6.88
2022-09-07T19:22:05.902Z,5.25
2022-09-07T19:24:33.246Z,6.40
2022-09-07T19:27:01.046Z,7.95
2022-09-07T19:29:29.013Z,7.70
2022-09-07T19:32:05.212Z,6.65
2022-09-07T19:34:33.105Z,9.60
2022-09-07T19:37:00.377Z,4.93
2022-09-07T19:39:27.412Z,6.82
2022-09-07T19:41:54.518Z,7.30
2022-09-07T19:44:21.532Z,5.30
2022-09-07T19:46:49.024Z,7.28
2022-09-07T19:49:16.179Z,6.83
2022-09-07T19:51:43.350Z,5.78
2022-09-07T19:54:10.982Z,8.02
2022-09-07T19:56:39.062Z,7.72
2022-09-07T19:59:06.154Z,7.07
2022-09-07T20:01:33.854Z,6.07
2022-09-07T20:04:05.367Z,5.72
2022-09-07T20:06:32.837Z,6.13
2022-09-07T20:09:01.148Z,6.97
2022-09-07T20:11:31.141Z,5.45
2022-09-07T20:13:58.162Z,4.97
2022-09-07T20:16:26.064Z,5.25
2022-09-07T20:18:53.272Z,6.40
2022-09-07T20:21:24.212Z,5.72
2022-09-07T20:23:51.443Z,7.60
2022-09-07T20:26:19.910Z,6.87
2022-09-07T20:28:47.165Z,6.18
2022-09-07T20:31:17.965Z,6.40
2022-09-07T20:33:46.007Z,6.55
2022-09-07T20:36:15.293Z,7.65
2022-09-07T20:38:43.447Z,6.63
2022-09-07T20:41:14.202Z,8.20
2022-09-07T20:43:41.423Z,7.90
2022-09-07T20:46:11.279Z,6.10
2022-09-07T20:48:38.698Z,7.93
2022-09-07T20:51:09.374Z,7.40
2022-09-07T20:53:37.206Z,6.70
2022-09-07T20:56:06.199Z,9.10
2022-09-07T20:58:34.114Z,8.10
2022-09-07T21:01:01.175Z,6.95
2022-09-07T21:03:28.597Z,6.50
2022-09-07T21:05:55.683Z,6.38
2022-09-07T21:08:22.696Z,7.05
2022-09-07T21:10:49.778Z,6.68
2022-09-07T21:13:16.791Z,5.30
2022-09-07T21:15:45.016Z,5.43
2022-09-07T21:18:14.075Z,5.40
2022-09-07T21:20:41.206Z,7.50
2022-09-07T21:23:08.215Z,7.68
2022-09-07T21:25:35.290Z,6.35
2022-09-07T21:28:02.371Z,6.07
2022-09-07T21:30:29.695Z,7.30
2022-09-07T21:32:59.885Z,6.32
2022-09-07T21:35:29.901Z,6.68
2022-09-07T21:37:56.986Z,7.10
2022-09-07T21:40:24.820Z,8.97
2022-09-07T21:42:52.057Z,8.02
2022-09-07T21:45:19.204Z,9.52
2022-09-07T21:47:46.270Z,7.50
2022-09-07T21:50:13.371Z,4.57
2022-09-07T21:52:40.380Z,9.47
2022-09-07T21:55:07.757Z,5.82
2022-09-07T21:57:34.745Z,8.15
2022-09-07T22:00:01.968Z,7.97
2022-09-07T22:02:29.211Z,5.40
2022-09-07T22:04:56.371Z,7.27
2022-09-07T22:07:23.378Z,5.78
2022-09-07T22:09:50.419Z,8.30
2022-09-07T22:12:17.479Z,6.68
2022-09-07T22:14:45.700Z,6.63
2022-09-07T22:17:12.748Z,5.97
2022-09-07T22:19:39.987Z,7.85
2022-09-07T22:22:07.007Z,5.80
2022-09-07T22:24:34.031Z,9.27
2022-09-07T22:27:01.046Z,4.93
2022-09-07T22:29:28.874Z,6.57
2022-09-07T22:31:55.975Z,5.50
2022-09-07T22:34:23.085Z,5.93
2022-09-07T22:36:53.026Z,6.47
2022-09-07T22:39:20.112Z,9.48
2022-09-07T22:41:48.121Z,6.77
2022-09-07T22:44:16.287Z,7.55
2022-09-07T22:46:44.459Z,7.30
2022-09-07T22:49:12.676Z,7.65
2022-09-07T22:51:40.035Z,6.70
2022-09-07T22:54:07.855Z,5.53
2022-09-07T22:56:35.222Z,6.13
2022-09-07T22:59:04.511Z,7.53
2022-09-07T23:01:32.589Z,7.00
2022-09-07T23:04:00.212Z,5.78
2022-09-07T23:06:28.546Z,7.33
2022-09-07T23:11:38.339Z,9.50
2022-09-07T23:14:06.708Z,6.13
2022-09-07T23:16:34.357Z,7.72
2022-09-07T23:19:02.018Z,8.40
2022-09-07T23:21:29.525Z,8.68
2022-09-07T23:23:57.894Z,7.80
2022-09-07T23:26:38.741Z,6.90
2022-09-07T23:29:07.136Z,10.38
2022-09-07T23:31:43.044Z,8.37
2022-09-07T23:34:17.350Z,12.52
2022-09-07T23:39:39.613Z,9.02
2022-09-07T23:46:01.967Z,8.90
2022-09-07T23:48:29.583Z,10.32
2022-09-07T23:50:56.796Z,9.00
2022-09-07T23:53:24.388Z,7.60
2022-09-07T23:55:53.171Z,9.10
2022-09-07T23:58:23.924Z,6.47
